sensor_id;sensor_type;location;lat;lon;timestamp;temperature;humidity
33699;DHT22;20032;52.436;13.312;2023-02-15T00:15:09;3.70;99.90
33699;DHT22;20032;52.436;13.312;2023-02-15T00:17:36;3.60;99.90
33699;DHT22;20032;52.436;13.312;2023-02-15T00:20:02;3.50;99.90
33699;DHT22;20032;52.436;13.312;2023-02-15T00:22:27;3.40;99.90
33699;DHT22;20032;52.436;13.312;2023-02-15T00:24:53;3.50;99.90
33699;DHT22;20032;52.436;13.312;2023-02-15T00:27:18;3.50;99.90
33699;DHT22;20032;52.436;13.312;2023-02-15T00:29:43;3.50;99.90
33699;DHT22;20032;52.436;13.312;2023-02-15T00:32:09;3.40;99.90
33699;DHT22;20032;52.436;13.312;2023-02-15T00:34:34;3.40;99.90
33699;DHT22;20032;52.436;13.312;2023-02-15T00:37:00;3.30;99.90
33699;DHT22;20032;52.436;13.312;2023-02-15T00:39:25;3.30;99.90
33699;DHT22;20032;52.436;13.312;2023-02-15T00:41:52;3.40;99.90
33699;DHT22;20032;52.436;13.312;2023-02-15T00:44:17;3.30;99.90
33699;DHT22;20032;52.436;13.312;2023-02-15T00:46:43;3.20;99.90
33699;DHT22;20032;52.436;13.312;2023-02-15T00:49:09;3.20;99.90
33699;DHT22;20032;52.436;13.312;2023-02-15T00:51:35;3.30;99.90
33699;DHT22;20032;52.436;13.312;2023-02-15T00:54:01;3.20;99.90
33699;DHT22;20032;52.436;13.312;2023-02-15T00:56:26;3.10;99.90
33699;DHT22;20032;52.436;13.312;2023-02-15T00:58:53;3.10;99.90
33699;DHT22;20032;52.436;13.312;2023-02-15T01:01:20;3.10;99.90
33699;DHT22;20032;52.436;13.312;2023-02-15T01:03:46;3.10;99.90
33699;DHT22;20032;52.436;13.312;2023-02-15T01:06:13;3.10;99.90
33699;DHT22;20032;52.436;13.312;2023-02-15T01:08:39;3.10;99.90
33699;DHT22;20032;52.436;13.312;2023-02-15T01:11:07;3.10;99.90
33699;DHT22;20032;52.436;13.312;2023-02-15T01:13:33;3.00;99.90
33699;DHT22;20032;52.436;13.312;2023-02-15T01:15:58;2.90;99.90
33699;DHT22;20032;52.436;13.312;2023-02-15T01:18:24;2.90;99.90
33699;DHT22;20032;52.436;13.312;2023-02-15T01:20:49;2.90;99.90
33699;DHT22;20032;52.436;13.312;2023-02-15T01:23:15;2.90;99.90
33699;DHT22;20032;52.436;13.312;2023-02-15T01:25:41;2.80;99.90
33699;DHT22;20032;52.436;13.312;2023-02-15T01:28:06;2.80;99.90
33699;DHT22;20032;52.436;13.312;2023-02-15T01:30:32;2.70;99.90
33699;DHT22;20032;52.436;13.312;2023-02-15T01:32:58;2.70;99.90
33699;DHT22;20032;52.436;13.312;2023-02-15T01:35:24;2.70;99.90
33699;DHT22;20032;52.436;13.312;2023-02-15T01:37:49;2.70;99.90
33699;DHT22;20032;52.436;13.312;2023-02-15T01:40:17;2.70;99.90
33699;DHT22;20032;52.436;13.312;2023-02-15T01:42:43;2.70;99.90
33699;DHT22;20032;52.436;13.312;2023-02-15T01:45:30;2.70;99.90
33699;DHT22;20032;52.436;13.312;2023-02-15T01:50:40;2.70;99.90
33699;DHT22;20032;52.436;13.312;2023-02-15T01:53:30;2.70;99.90
33699;DHT22;20032;52.436;13.312;2023-02-15T01:55:59;2.60;99.90
33699;DHT22;20032;52.436;13.312;2023-02-15T01:58:27;2.60;99.90
33699;DHT22;20032;52.436;13.312;2023-02-15T02:00:54;2.60;99.90
33699;DHT22;20032;52.436;13.312;2023-02-15T02:04:33;2.50;99.90
33699;DHT22;20032;52.436;13.312;2023-02-15T02:06:16;2.40;99.90
33699;DHT22;20032;52.436;13.312;2023-02-15T02:08:42;2.40;99.90
33699;DHT22;20032;52.436;13.312;2023-02-15T02:11:10;2.40;99.90
33699;DHT22;20032;52.436;13.312;2023-02-15T02:13:36;2.40;99.90
33699;DHT22;20032;52.436;13.312;2023-02-15T02:19:48;2.40;99.90
33699;DHT22;20032;52.436;13.312;2023-02-15T02:21:42;2.40;99.90
33699;DHT22;20032;52.436;13.312;2023-02-15T02:25:30;2.30;99.90
33699;DHT22;20032;52.436;13.312;2023-02-15T02:29:45;2.30;99.90
33699;DHT22;20032;52.436;13.312;2023-02-15T02:33:39;2.20;99.90
33699;DHT22;20032;52.436;13.312;2023-02-15T02:35:38;2.20;99.90
33699;DHT22;20032;52.436;13.312;2023-02-15T02:38:28;2.30;99.90
33699;DHT22;20032;52.436;13.312;2023-02-15T02:42:09;2.20;99.90
33699;DHT22;20032;52.436;13.312;2023-02-15T02:44:33;2.10;99.90
33699;DHT22;20032;52.436;13.312;2023-02-15T02:46:53;2.10;99.90
33699;DHT22;20032;52.436;13.312;2023-02-15T02:49:37;2.10;99.90
33699;DHT22;20032;52.436;13.312;2023-02-15T02:52:06;2.00;99.90
33699;DHT22;20032;52.436;13.312;2023-02-15T02:54:34;2.10;99.90
33699;DHT22;20032;52.436;13.312;2023-02-15T02:57:04;2.10;99.90
33699;DHT22;20032;52.436;13.312;2023-02-15T02:59:33;2.20;99.90
33699;DHT22;20032;52.436;13.312;2023-02-15T03:02:11;2.10;99.90
33699;DHT22;20032;52.436;13.312;2023-02-15T03:04:41;2.10;99.90
33699;DHT22;20032;52.436;13.312;2023-02-15T03:07:11;2.00;99.90
33699;DHT22;20032;52.436;13.312;2023-02-15T03:09:44;2.00;99.90
33699;DHT22;20032;52.436;13.312;2023-02-15T03:12:16;2.00;99.90
33699;DHT22;20032;52.436;13.312;2023-02-15T03:14:46;2.00;99.90
33699;DHT22;20032;52.436;13.312;2023-02-15T03:17:13;2.00;99.90
33699;DHT22;20032;52.436;13.312;2023-02-15T03:19:40;2.10;99.90
33699;DHT22;20032;52.436;13.312;2023-02-15T03:22:13;2.10;99.90
33699;DHT22;20032;52.436;13.312;2023-02-15T03:24:54;2.10;99.90
33699;DHT22;20032;52.436;13.312;2023-02-15T03:27:24;2.10;99.90
33699;DHT22;20032;52.436;13.312;2023-02-15T03:29:56;2.00;99.90
33699;DHT22;20032;52.436;13.312;2023-02-15T03:32:23;2.00;99.90
33699;DHT22;20032;52.436;13.312;2023-02-15T03:34:51;1.90;99.90
33699;DHT22;20032;52.436;13.312;2023-02-15T03:37:26;2.00;99.90
33699;DHT22;20032;52.436;13.312;2023-02-15T03:39:55;2.00;99.90
33699;DHT22;20032;52.436;13.312;2023-02-15T03:42:43;1.90;99.90
33699;DHT22;20032;52.436;13.312;2023-02-15T03:45:13;1.90;99.90
33699;DHT22;20032;52.436;13.312;2023-02-15T03:47:44;1.90;99.90
33699;DHT22;20032;52.436;13.312;2023-02-15T03:50:17;1.80;99.90
33699;DHT22;20032;52.436;13.312;2023-02-15T03:53:07;1.80;99.90
33699;DHT22;20032;52.436;13.312;2023-02-15T03:55:35;1.80;99.90
33699;DHT22;20032;52.436;13.312;2023-02-15T03:58:01;1.70;99.90
33699;DHT22;20032;52.436;13.312;2023-02-15T04:00:59;1.70;99.90
33699;DHT22;20032;52.436;13.312;2023-02-15T04:03:50;1.80;99.90
33699;DHT22;20032;52.436;13.312;2023-02-15T04:06:17;1.80;99.90
33699;DHT22;20032;52.436;13.312;2023-02-15T04:08:42;1.80;99.90
33699;DHT22;20032;52.436;13.312;2023-02-15T04:11:28;1.90;99.90
33699;DHT22;20032;52.436;13.312;2023-02-15T04:13:53;1.90;99.90
33699;DHT22;20032;52.436;13.312;2023-02-15T04:16:23;2.00;99.90
33699;DHT22;20032;52.436;13.312;2023-02-15T04:18:48;1.80;99.90
33699;DHT22;20032;52.436;13.312;2023-02-15T04:21:34;1.80;99.90
33699;DHT22;20032;52.436;13.312;2023-02-15T04:24:19;1.70;99.90
33699;DHT22;20032;52.436;13.312;2023-02-15T04:27:05;1.60;99.90
33699;DHT22;20032;52.436;13.312;2023-02-15T04:29:31;1.60;99.90
33699;DHT22;20032;52.436;13.312;2023-02-15T04:31:59;1.60;99.90
33699;DHT22;20032;52.436;13.312;2023-02-15T04:34:25;1.50;99.90
33699;DHT22;20032;52.436;13.312;2023-02-15T04:36:51;1.40;99.90
33699;DHT22;20032;52.436;13.312;2023-02-15T04:39:17;1.40;99.90
33699;DHT22;20032;52.436;13.312;2023-02-15T04:41:43;1.30;99.90
33699;DHT22;20032;52.436;13.312;2023-02-15T04:44:09;1.40;99.90
33699;DHT22;20032;52.436;13.312;2023-02-15T04:46:34;1.40;99.90
33699;DHT22;20032;52.436;13.312;2023-02-15T04:49:00;1.30;99.90
33699;DHT22;20032;52.436;13.312;2023-02-15T04:51:25;1.20;99.90
33699;DHT22;20032;52.436;13.312;2023-02-15T04:53:51;1.20;99.90
33699;DHT22;20032;52.436;13.312;2023-02-15T04:56:19;1.20;99.90
33699;DHT22;20032;52.436;13.312;2023-02-15T04:58:44;1.20;99.90
33699;DHT22;20032;52.436;13.312;2023-02-15T05:01:10;1.20;99.90
33699;DHT22;20032;52.436;13.312;2023-02-15T05:03:36;1.20;99.90
33699;DHT22;20032;52.436;13.312;2023-02-15T05:06:02;1.10;99.90
33699;DHT22;20032;52.436;13.312;2023-02-15T05:08:27;1.10;99.90
33699;DHT22;20032;52.436;13.312;2023-02-15T05:10:53;1.10;99.90
33699;DHT22;20032;52.436;13.312;2023-02-15T05:13:18;1.10;99.90
33699;DHT22;20032;52.436;13.312;2023-02-15T05:15:48;1.00;99.90
33699;DHT22;20032;52.436;13.312;2023-02-15T05:18:14;1.00;99.90
33699;DHT22;20032;52.436;13.312;2023-02-15T05:20:40;1.00;99.90
33699;DHT22;20032;52.436;13.312;2023-02-15T05:23:05;1.00;99.90
33699;DHT22;20032;52.436;13.312;2023-02-15T05:25:31;1.00;99.90
33699;DHT22;20032;52.436;13.312;2023-02-15T05:28:16;1.00;99.90
33699;DHT22;20032;52.436;13.312;2023-02-15T05:30:46;1.00;99.90
33699;DHT22;20032;52.436;13.312;2023-02-15T05:33:12;1.00;99.90
33699;DHT22;20032;52.436;13.312;2023-02-15T05:35:38;1.00;99.90
33699;DHT22;20032;52.436;13.312;2023-02-15T05:38:03;1.00;99.90
33699;DHT22;20032;52.436;13.312;2023-02-15T05:40:28;1.10;99.90
33699;DHT22;20032;52.436;13.312;2023-02-15T05:42:54;1.00;99.90
33699;DHT22;20032;52.436;13.312;2023-02-15T05:45:20;1.00;99.90
33699;DHT22;20032;52.436;13.312;2023-02-15T05:47:46;1.10;99.90
33699;DHT22;20032;52.436;13.312;2023-02-15T05:50:11;1.10;99.90
33699;DHT22;20032;52.436;13.312;2023-02-15T05:52:37;1.10;99.90
33699;DHT22;20032;52.436;13.312;2023-02-15T05:55:04;1.10;99.90
33699;DHT22;20032;52.436;13.312;2023-02-15T05:57:29;1.00;99.90
33699;DHT22;20032;52.436;13.312;2023-02-15T05:59:55;1.00;99.90
33699;DHT22;20032;52.436;13.312;2023-02-15T06:02:21;0.90;99.90
33699;DHT22;20032;52.436;13.312;2023-02-15T06:04:46;0.90;99.90
33699;DHT22;20032;52.436;13.312;2023-02-15T06:07:12;0.90;99.90
33699;DHT22;20032;52.436;13.312;2023-02-15T06:09:38;0.80;99.90
33699;DHT22;20032;52.436;13.312;2023-02-15T06:12:04;0.80;99.90
33699;DHT22;20032;52.436;13.312;2023-02-15T06:14:30;0.90;99.90
33699;DHT22;20032;52.436;13.312;2023-02-15T06:16:55;0.90;99.90
33699;DHT22;20032;52.436;13.312;2023-02-15T06:19:21;0.90;99.90
33699;DHT22;20032;52.436;13.312;2023-02-15T06:21:48;0.90;99.90
33699;DHT22;20032;52.436;13.312;2023-02-15T06:24:14;0.80;99.90
33699;DHT22;20032;52.436;13.312;2023-02-15T06:26:39;0.80;99.90
33699;DHT22;20032;52.436;13.312;2023-02-15T06:29:05;0.80;99.90
33699;DHT22;20032;52.436;13.312;2023-02-15T06:31:31;0.70;99.90
33699;DHT22;20032;52.436;13.312;2023-02-15T06:33:57;0.70;99.90
33699;DHT22;20032;52.436;13.312;2023-02-15T06:36:27;0.80;99.90
33699;DHT22;20032;52.436;13.312;2023-02-15T06:38:55;0.80;99.90
33699;DHT22;20032;52.436;13.312;2023-02-15T06:41:23;0.70;99.90
33699;DHT22;20032;52.436;13.312;2023-02-15T06:43:49;0.70;99.90
33699;DHT22;20032;52.436;13.312;2023-02-15T06:46:15;0.70;99.90
33699;DHT22;20032;52.436;13.312;2023-02-15T06:48:41;0.60;99.90
33699;DHT22;20032;52.436;13.312;2023-02-15T06:51:11;0.70;99.90
33699;DHT22;20032;52.436;13.312;2023-02-15T06:53:36;0.70;99.90
33699;DHT22;20032;52.436;13.312;2023-02-15T06:56:04;0.60;99.90
33699;DHT22;20032;52.436;13.312;2023-02-15T06:58:33;0.50;99.90
33699;DHT22;20032;52.436;13.312;2023-02-15T07:00:59;0.60;99.90
33699;DHT22;20032;52.436;13.312;2023-02-15T07:03:24;0.50;99.90
33699;DHT22;20032;52.436;13.312;2023-02-15T07:05:54;0.50;99.90
33699;DHT22;20032;52.436;13.312;2023-02-15T07:08:21;0.50;99.90
33699;DHT22;20032;52.436;13.312;2023-02-15T07:10:48;0.50;99.90
33699;DHT22;20032;52.436;13.312;2023-02-15T07:13:14;0.50;99.90
33699;DHT22;20032;52.436;13.312;2023-02-15T07:15:39;0.40;99.90
33699;DHT22;20032;52.436;13.312;2023-02-15T07:18:05;0.40;99.90
33699;DHT22;20032;52.436;13.312;2023-02-15T07:20:30;0.50;99.90
33699;DHT22;20032;52.436;13.312;2023-02-15T07:22:56;0.60;99.90
33699;DHT22;20032;52.436;13.312;2023-02-15T07:25:21;0.50;99.90
33699;DHT22;20032;52.436;13.312;2023-02-15T07:27:47;0.60;99.90
33699;DHT22;20032;52.436;13.312;2023-02-15T07:30:14;0.50;99.90
33699;DHT22;20032;52.436;13.312;2023-02-15T07:32:41;0.50;99.90
33699;DHT22;20032;52.436;13.312;2023-02-15T07:35:26;0.40;99.90
33699;DHT22;20032;52.436;13.312;2023-02-15T07:37:52;0.40;99.90
33699;DHT22;20032;52.436;13.312;2023-02-15T07:40:18;0.50;99.90
33699;DHT22;20032;52.436;13.312;2023-02-15T07:42:44;0.60;99.90
33699;DHT22;20032;52.436;13.312;2023-02-15T07:45:09;0.50;99.90
33699;DHT22;20032;52.436;13.312;2023-02-15T07:47:35;0.40;99.90
33699;DHT22;20032;52.436;13.312;2023-02-15T07:50:01;0.40;99.90
33699;DHT22;20032;52.436;13.312;2023-02-15T07:52:27;0.60;99.90
33699;DHT22;20032;52.436;13.312;2023-02-15T07:54:52;0.60;99.90
33699;DHT22;20032;52.436;13.312;2023-02-15T07:57:18;0.50;99.90
33699;DHT22;20032;52.436;13.312;2023-02-15T07:59:43;0.20;99.90
33699;DHT22;20032;52.436;13.312;2023-02-15T08:02:10;0.20;99.90
33699;DHT22;20032;52.436;13.312;2023-02-15T08:04:36;0.00;99.90
33699;DHT22;20032;52.436;13.312;2023-02-15T08:07:02;0.10;99.90
33699;DHT22;20032;52.436;13.312;2023-02-15T08:09:27;0.20;99.90
33699;DHT22;20032;52.436;13.312;2023-02-15T08:11:53;0.20;99.90
33699;DHT22;20032;52.436;13.312;2023-02-15T08:14:21;0.20;99.90
33699;DHT22;20032;52.436;13.312;2023-02-15T08:16:49;0.20;99.90
33699;DHT22;20032;52.436;13.312;2023-02-15T08:19:18;0.20;99.90
33699;DHT22;20032;52.436;13.312;2023-02-15T08:21:48;0.40;99.90
33699;DHT22;20032;52.436;13.312;2023-02-15T08:24:15;0.50;99.90
33699;DHT22;20032;52.436;13.312;2023-02-15T08:26:42;0.60;99.90
33699;DHT22;20032;52.436;13.312;2023-02-15T08:29:10;0.60;99.90
33699;DHT22;20032;52.436;13.312;2023-02-15T08:31:36;0.50;99.90
33699;DHT22;20032;52.436;13.312;2023-02-15T08:34:03;0.50;99.90
33699;DHT22;20032;52.436;13.312;2023-02-15T08:36:30;0.60;99.90
33699;DHT22;20032;52.436;13.312;2023-02-15T08:38:58;0.70;99.90
33699;DHT22;20032;52.436;13.312;2023-02-15T08:41:26;0.70;99.90
33699;DHT22;20032;52.436;13.312;2023-02-15T08:43:53;0.90;99.90
33699;DHT22;20032;52.436;13.312;2023-02-15T08:46:20;1.00;99.90
33699;DHT22;20032;52.436;13.312;2023-02-15T08:48:46;0.80;99.90
33699;DHT22;20032;52.436;13.312;2023-02-15T08:51:16;0.80;99.90
33699;DHT22;20032;52.436;13.312;2023-02-15T08:53:46;0.80;99.90
33699;DHT22;20032;52.436;13.312;2023-02-15T08:56:11;0.80;99.90
33699;DHT22;20032;52.436;13.312;2023-02-15T08:58:37;1.00;99.90
33699;DHT22;20032;52.436;13.312;2023-02-15T09:01:13;1.20;99.90
33699;DHT22;20032;52.436;13.312;2023-02-15T09:03:39;1.20;99.90
33699;DHT22;20032;52.436;13.312;2023-02-15T09:06:06;1.00;99.90
33699;DHT22;20032;52.436;13.312;2023-02-15T09:08:32;0.90;99.90
33699;DHT22;20032;52.436;13.312;2023-02-15T09:11:05;0.90;99.90
33699;DHT22;20032;52.436;13.312;2023-02-15T09:13:32;1.00;99.90
33699;DHT22;20032;52.436;13.312;2023-02-15T09:16:01;1.00;99.90
33699;DHT22;20032;52.436;13.312;2023-02-15T09:18:27;1.00;99.90
33699;DHT22;20032;52.436;13.312;2023-02-15T09:20:53;1.00;99.90
33699;DHT22;20032;52.436;13.312;2023-02-15T09:23:20;1.10;99.90
33699;DHT22;20032;52.436;13.312;2023-02-15T09:25:45;1.20;99.90
33699;DHT22;20032;52.436;13.312;2023-02-15T09:28:11;1.30;99.90
33699;DHT22;20032;52.436;13.312;2023-02-15T09:30:37;1.40;99.90
33699;DHT22;20032;52.436;13.312;2023-02-15T09:33:02;1.50;99.90
33699;DHT22;20032;52.436;13.312;2023-02-15T09:35:28;1.60;99.90
33699;DHT22;20032;52.436;13.312;2023-02-15T09:37:53;1.60;99.90
33699;DHT22;20032;52.436;13.312;2023-02-15T09:40:19;1.70;99.90
33699;DHT22;20032;52.436;13.312;2023-02-15T09:42:51;1.80;99.90
33699;DHT22;20032;52.436;13.312;2023-02-15T09:45:48;1.80;99.90
33699;DHT22;20032;52.436;13.312;2023-02-15T09:48:23;1.80;99.90
33699;DHT22;20032;52.436;13.312;2023-02-15T09:51:19;1.90;99.90
33699;DHT22;20032;52.436;13.312;2023-02-15T10:02:20;2.30;99.90
33699;DHT22;20032;52.436;13.312;2023-02-15T10:04:54;2.20;99.90
33699;DHT22;20032;52.436;13.312;2023-02-15T10:10:28;2.30;99.90
33699;DHT22;20032;52.436;13.312;2023-02-15T10:13:13;2.50;99.90
33699;DHT22;20032;52.436;13.312;2023-02-15T10:18:51;2.70;99.90
33699;DHT22;20032;52.436;13.312;2023-02-15T10:21:42;2.80;99.90
33699;DHT22;20032;52.436;13.312;2023-02-15T10:27:03;3.00;99.90
33699;DHT22;20032;52.436;13.312;2023-02-15T10:29:37;3.20;99.90
33699;DHT22;20032;52.436;13.312;2023-02-15T10:32:05;3.20;99.90
33699;DHT22;20032;52.436;13.312;2023-02-15T10:34:39;3.30;99.90
33699;DHT22;20032;52.436;13.312;2023-02-15T10:43:30;3.70;99.90
33699;DHT22;20032;52.436;13.312;2023-02-15T10:45:36;3.60;99.90
33699;DHT22;20032;52.436;13.312;2023-02-15T10:51:00;3.70;99.90
33699;DHT22;20032;52.436;13.312;2023-02-15T10:56:40;3.90;99.90
33699;DHT22;20032;52.436;13.312;2023-02-15T10:59:26;3.80;99.90
33699;DHT22;20032;52.436;13.312;2023-02-15T11:03:05;3.80;99.90
33699;DHT22;20032;52.436;13.312;2023-02-15T11:06:02;3.80;99.90
33699;DHT22;20032;52.436;13.312;2023-02-15T11:07:46;4.00;99.90
33699;DHT22;20032;52.436;13.312;2023-02-15T11:10:25;4.40;99.90
33699;DHT22;20032;52.436;13.312;2023-02-15T11:12:52;4.50;99.90
33699;DHT22;20032;52.436;13.312;2023-02-15T11:16:34;4.60;99.90
33699;DHT22;20032;52.436;13.312;2023-02-15T11:18:36;4.60;99.90
33699;DHT22;20032;52.436;13.312;2023-02-15T11:21:17;4.60;99.90
33699;DHT22;20032;52.436;13.312;2023-02-15T11:23:46;4.80;99.90
33699;DHT22;20032;52.436;13.312;2023-02-15T11:26:19;4.80;99.90
33699;DHT22;20032;52.436;13.312;2023-02-15T11:28:51;4.80;99.90
33699;DHT22;20032;52.436;13.312;2023-02-15T11:31:21;5.20;99.90
33699;DHT22;20032;52.436;13.312;2023-02-15T11:33:51;5.20;99.90
33699;DHT22;20032;52.436;13.312;2023-02-15T11:36:21;5.10;99.90
33699;DHT22;20032;52.436;13.312;2023-02-15T11:38:49;5.50;99.90
33699;DHT22;20032;52.436;13.312;2023-02-15T11:41:20;5.80;99.90
33699;DHT22;20032;52.436;13.312;2023-02-15T11:43:50;5.80;99.90
33699;DHT22;20032;52.436;13.312;2023-02-15T11:46:18;6.20;99.90
33699;DHT22;20032;52.436;13.312;2023-02-15T11:48:45;6.60;99.90
33699;DHT22;20032;52.436;13.312;2023-02-15T11:51:14;7.00;99.90
33699;DHT22;20032;52.436;13.312;2023-02-15T11:53:42;7.40;99.90
33699;DHT22;20032;52.436;13.312;2023-02-15T11:56:18;7.40;99.90
33699;DHT22;20032;52.436;13.312;2023-02-15T11:58:51;7.80;99.90
33699;DHT22;20032;52.436;13.312;2023-02-15T12:01:36;8.40;99.90
33699;DHT22;20032;52.436;13.312;2023-02-15T12:04:08;8.60;99.90
33699;DHT22;20032;52.436;13.312;2023-02-15T12:06:38;8.60;99.90
33699;DHT22;20032;52.436;13.312;2023-02-15T12:09:17;8.50;99.90
33699;DHT22;20032;52.436;13.312;2023-02-15T12:11:44;8.90;99.90
33699;DHT22;20032;52.436;13.312;2023-02-15T12:14:11;9.40;99.90
33699;DHT22;20032;52.436;13.312;2023-02-15T12:16:46;9.80;99.90
33699;DHT22;20032;52.436;13.312;2023-02-15T12:19:32;9.90;99.90
33699;DHT22;20032;52.436;13.312;2023-02-15T12:22:02;9.90;99.90
33699;DHT22;20032;52.436;13.312;2023-02-15T12:24:34;10.20;99.90
33699;DHT22;20032;52.436;13.312;2023-02-15T12:27:04;10.50;99.90
33699;DHT22;20032;52.436;13.312;2023-02-15T12:29:39;11.00;99.90
33699;DHT22;20032;52.436;13.312;2023-02-15T12:32:06;11.30;99.90
33699;DHT22;20032;52.436;13.312;2023-02-15T12:34:37;11.40;99.90
33699;DHT22;20032;52.436;13.312;2023-02-15T12:37:14;11.50;99.90
33699;DHT22;20032;52.436;13.312;2023-02-15T12:39:52;11.50;99.90
33699;DHT22;20032;52.436;13.312;2023-02-15T12:42:18;11.80;99.90
33699;DHT22;20032;52.436;13.312;2023-02-15T12:44:55;12.40;99.90
33699;DHT22;20032;52.436;13.312;2023-02-15T12:47:21;12.70;99.90
33699;DHT22;20032;52.436;13.312;2023-02-15T12:50:11;12.70;99.90
33699;DHT22;20032;52.436;13.312;2023-02-15T12:52:43;13.00;99.90
33699;DHT22;20032;52.436;13.312;2023-02-15T12:55:26;13.00;99.90
33699;DHT22;20032;52.436;13.312;2023-02-15T12:58:17;13.30;99.90
33699;DHT22;20032;52.436;13.312;2023-02-15T13:00:43;13.50;99.90
33699;DHT22;20032;52.436;13.312;2023-02-15T13:03:18;13.20;99.90
33699;DHT22;20032;52.436;13.312;2023-02-15T13:05:46;13.40;99.90
33699;DHT22;20032;52.436;13.312;2023-02-15T13:08:17;13.60;99.90
33699;DHT22;20032;52.436;13.312;2023-02-15T13:11:03;13.50;99.90
33699;DHT22;20032;52.436;13.312;2023-02-15T13:13:33;13.00;99.90
33699;DHT22;20032;52.436;13.312;2023-02-15T13:16:04;13.20;99.90
33699;DHT22;20032;52.436;13.312;2023-02-15T13:18:35;13.40;99.90
33699;DHT22;20032;52.436;13.312;2023-02-15T13:21:09;12.80;99.90
33699;DHT22;20032;52.436;13.312;2023-02-15T13:23:37;12.60;99.90
33699;DHT22;20032;52.436;13.312;2023-02-15T13:26:05;12.60;99.90
33699;DHT22;20032;52.436;13.312;2023-02-15T13:28:41;12.50;99.90
33699;DHT22;20032;52.436;13.312;2023-02-15T13:31:13;12.30;99.90
33699;DHT22;20032;52.436;13.312;2023-02-15T13:33:43;12.20;99.90
33699;DHT22;20032;52.436;13.312;2023-02-15T13:36:20;12.00;99.90
33699;DHT22;20032;52.436;13.312;2023-02-15T13:39:09;12.20;99.90
33699;DHT22;20032;52.436;13.312;2023-02-15T13:41:51;12.30;99.90
33699;DHT22;20032;52.436;13.312;2023-02-15T13:44:41;12.00;99.90
33699;DHT22;20032;52.436;13.312;2023-02-15T13:47:22;11.60;99.90
33699;DHT22;20032;52.436;13.312;2023-02-15T13:50:06;12.00;99.90
33699;DHT22;20032;52.436;13.312;2023-02-15T13:52:46;12.00;99.90
33699;DHT22;20032;52.436;13.312;2023-02-15T13:55:36;12.10;99.90
33699;DHT22;20032;52.436;13.312;2023-02-15T13:58:37;12.20;99.90
33699;DHT22;20032;52.436;13.312;2023-02-15T14:01:34;12.10;99.90
33699;DHT22;20032;52.436;13.312;2023-02-15T14:04:20;11.90;99.90
33699;DHT22;20032;52.436;13.312;2023-02-15T14:07:12;11.90;99.90
33699;DHT22;20032;52.436;13.312;2023-02-15T14:12:57;12.00;99.90
33699;DHT22;20032;52.436;13.312;2023-02-15T14:15:48;12.20;99.90
33699;DHT22;20032;52.436;13.312;2023-02-15T14:18:42;12.10;99.90
33699;DHT22;20032;52.436;13.312;2023-02-15T14:21:31;11.80;99.90
33699;DHT22;20032;52.436;13.312;2023-02-15T14:24:17;11.90;99.90
33699;DHT22;20032;52.436;13.312;2023-02-15T14:27:52;11.80;99.90
33699;DHT22;20032;52.436;13.312;2023-02-15T14:32:16;11.80;99.90
33699;DHT22;20032;52.436;13.312;2023-02-15T14:34:51;11.80;99.90
33699;DHT22;20032;52.436;13.312;2023-02-15T14:37:24;11.80;99.90
33699;DHT22;20032;52.436;13.312;2023-02-15T14:40:00;11.70;99.90
33699;DHT22;20032;52.436;13.312;2023-02-15T14:42:58;11.80;99.90
33699;DHT22;20032;52.436;13.312;2023-02-15T14:45:49;11.70;99.90
33699;DHT22;20032;52.436;13.312;2023-02-15T14:49:21;11.80;99.90
33699;DHT22;20032;52.436;13.312;2023-02-15T14:51:05;11.90;99.90
33699;DHT22;20032;52.436;13.312;2023-02-15T14:53:33;11.70;99.90
33699;DHT22;20032;52.436;13.312;2023-02-15T14:58:32;11.60;99.90
33699;DHT22;20032;52.436;13.312;2023-02-15T15:01:08;11.50;99.90
33699;DHT22;20032;52.436;13.312;2023-02-15T15:03:34;11.50;99.90
33699;DHT22;20032;52.436;13.312;2023-02-15T15:06:03;11.50;99.90
33699;DHT22;20032;52.436;13.312;2023-02-15T15:08:36;11.50;99.90
33699;DHT22;20032;52.436;13.312;2023-02-15T15:13:58;11.40;99.90
33699;DHT22;20032;52.436;13.312;2023-02-15T15:16:29;11.40;99.90
33699;DHT22;20032;52.436;13.312;2023-02-15T15:18:56;11.30;99.90
33699;DHT22;20032;52.436;13.312;2023-02-15T15:27:39;11.50;99.90
33699;DHT22;20032;52.436;13.312;2023-02-15T15:38:53;11.40;99.90
33699;DHT22;20032;52.436;13.312;2023-02-15T15:41:47;11.30;99.90
33699;DHT22;20032;52.436;13.312;2023-02-15T15:44:54;11.10;99.90
33699;DHT22;20032;52.436;13.312;2023-02-15T15:47:53;11.00;99.90
33699;DHT22;20032;52.436;13.312;2023-02-15T15:50:19;10.90;99.90
33699;DHT22;20032;52.436;13.312;2023-02-15T15:52:50;11.00;99.90
33699;DHT22;20032;52.436;13.312;2023-02-15T15:55:19;10.90;99.90
33699;DHT22;20032;52.436;13.312;2023-02-15T15:57:48;10.90;99.90
33699;DHT22;20032;52.436;13.312;2023-02-15T16:02:53;10.40;99.90
33699;DHT22;20032;52.436;13.312;2023-02-15T16:05:20;10.00;99.90
33699;DHT22;20032;52.436;13.312;2023-02-15T16:07:46;9.90;99.90
33699;DHT22;20032;52.436;13.312;2023-02-15T16:10:28;9.80;99.90
33699;DHT22;20032;52.436;13.312;2023-02-15T16:12:55;9.70;99.90
33699;DHT22;20032;52.436;13.312;2023-02-15T16:15:35;9.60;99.90
33699;DHT22;20032;52.436;13.312;2023-02-15T16:18:01;9.50;99.90
33699;DHT22;20032;52.436;13.312;2023-02-15T16:20:30;9.40;99.90
33699;DHT22;20032;52.436;13.312;2023-02-15T16:24:26;9.30;99.90
33699;DHT22;20032;52.436;13.312;2023-02-15T16:26:17;9.20;99.90
33699;DHT22;20032;52.436;13.312;2023-02-15T16:28:49;8.90;99.90
33699;DHT22;20032;52.436;13.312;2023-02-15T16:31:17;8.90;99.90
33699;DHT22;20032;52.436;13.312;2023-02-15T16:33:44;8.80;99.90
33699;DHT22;20032;52.436;13.312;2023-02-15T16:36:27;8.90;99.90
33699;DHT22;20032;52.436;13.312;2023-02-15T16:41:24;8.50;99.90
33699;DHT22;20032;52.436;13.312;2023-02-15T16:43:51;8.40;99.90
33699;DHT22;20032;52.436;13.312;2023-02-15T16:46:38;8.20;99.90
33699;DHT22;20032;52.436;13.312;2023-02-15T16:49:17;8.20;99.90
33699;DHT22;20032;52.436;13.312;2023-02-15T16:51:43;8.20;99.90
33699;DHT22;20032;52.436;13.312;2023-02-15T16:54:18;8.00;99.90
33699;DHT22;20032;52.436;13.312;2023-02-15T16:56:44;7.90;99.90
33699;DHT22;20032;52.436;13.312;2023-02-15T16:59:29;7.70;99.90
33699;DHT22;20032;52.436;13.312;2023-02-15T17:01:56;7.60;99.90
33699;DHT22;20032;52.436;13.312;2023-02-15T17:04:26;7.60;99.90
33699;DHT22;20032;52.436;13.312;2023-02-15T17:07:19;7.50;99.90
33699;DHT22;20032;52.436;13.312;2023-02-15T17:09:50;7.40;99.90
33699;DHT22;20032;52.436;13.312;2023-02-15T17:12:43;7.20;99.90
33699;DHT22;20032;52.436;13.312;2023-02-15T17:16:06;7.00;99.90
33699;DHT22;20032;52.436;13.312;2023-02-15T17:18:18;6.90;99.90
33699;DHT22;20032;52.436;13.312;2023-02-15T17:20:45;6.90;99.90